Time;durP1;ratioP1;P1;durP2;ratioP2;P2;SDS_P1;SDS_P2;PMS_P1;PMS_P2;Temp;Humidity;BMP_temperature;BMP_pressure;BME280_temperature;BME280_humidity;BME280_pressure;Samples;Min_cycle;Max_cycle;Signal;HPM_P1;HPM_P2
2024/04/02 00:02:19;;;;;;;2.07;0.40;;;9.30;99.90;;;;;;5026548;28;20391;-80
2024/04/02 00:04:44;;;;;;;0.40;0.30;;;9.20;99.90;;;;;;5018590;28;20421;-79
2024/04/02 00:07:10;;;;;;;0.40;0.30;;;9.20;99.90;;;;;;5016105;28;20419;-80
2024/04/02 00:09:35;;;;;;;0.80;0.47;;;9.90;99.90;;;;;;5015160;28;20391;-80
2024/04/02 00:12:01;;;;;;;0.40;0.30;;;9.90;99.90;;;;;;5024143;28;20393;-81
2024/04/02 00:14:27;;;;;;;0.50;0.30;;;9.50;99.90;;;;;;5022089;28;20443;-80
2024/04/02 00:16:52;;;;;;;0.60;0.50;;;9.50;99.90;;;;;;5005802;28;20767;-80
2024/04/02 00:19:18;;;;;;;1.00;0.50;;;9.90;99.90;;;;;;5018004;28;20470;-79
2024/04/02 00:21:43;;;;;;;0.80;0.37;;;9.50;99.90;;;;;;5008139;28;20391;-79
2024/04/02 00:24:09;;;;;;;0.70;0.50;;;9.80;99.90;;;;;;5026633;28;20411;-79
2024/04/02 00:26:34;;;;;;;1.40;0.40;;;9.40;99.90;;;;;;5013461;28;20885;-80
2024/04/02 00:29:00;;;;;;;0.80;0.40;;;9.20;99.90;;;;;;5012673;28;20409;-79
2024/04/02 00:31:25;;;;;;;0.40;0.40;;;9.20;99.90;;;;;;5031608;28;20487;-78
2024/04/02 00:33:50;;;;;;;0.50;0.30;;;9.70;99.90;;;;;;5028765;28;20408;-79
2024/04/02 00:36:16;;;;;;;0.40;0.30;;;9.90;99.90;;;;;;5024971;28;20775;-80
2024/04/02 00:38:42;;;;;;;0.50;0.40;;;;;;;;;;5034987;28;20441;-81
2024/04/02 00:41:07;;;;;;;0.50;0.40;;;9.90;99.90;;;;;;5018399;28;20392;-80
2024/04/02 00:43:33;;;;;;;0.60;0.40;;;9.80;99.90;;;;;;5024765;28;20390;-80
2024/04/02 00:45:58;;;;;;;1.63;0.40;;;9.90;99.90;;;;;;5038605;28;20395;-79
2024/04/02 00:48:24;;;;;;;0.60;0.50;;;9.60;99.90;;;;;;5043666;28;20403;-80
2024/04/02 00:50:51;;;;;;;2.20;0.40;;;9.20;99.90;;;;;;5023886;28;20387;-80
2024/04/02 00:53:19;;;;;;;0.90;0.43;;;9.30;99.90;;;;;;5029084;28;20458;-80
2024/04/02 00:55:45;;;;;;;0.57;0.40;;;9.40;99.90;;;;;;5016361;28;20393;-80
2024/04/02 00:58:10;;;;;;;1.00;0.40;;;9.60;99.90;;;;;;5015226;28;20986;-80
2024/04/02 01:00:36;;;;;;;0.60;0.40;;;9.60;99.90;;;;;;5029118;28;20391;-81
2024/04/02 01:03:03;;;;;;;0.80;0.40;;;9.90;99.90;;;;;;5033209;28;20387;-80
2024/04/02 01:05:30;;;;;;;0.60;0.50;;;10.00;99.90;;;;;;5012270;28;20397;-79
2024/04/02 01:07:55;;;;;;;0.60;0.40;;;9.40;99.90;;;;;;5023151;28;20407;-80
2024/04/02 01:10:21;;;;;;;0.60;0.50;;;11.20;99.90;;;;;;5012557;28;20403;-80
2024/04/02 01:12:46;;;;;;;0.50;0.40;;;9.60;99.90;;;;;;5012313;28;20453;-80
2024/04/02 01:15:18;;;;;;;1.00;0.60;;;9.30;99.90;;;;;;5013022;28;20464;-80
2024/04/02 01:17:44;;;;;;;1.00;0.60;;;10.00;99.90;;;;;;5012340;28;20389;-80
2024/04/02 01:20:09;;;;;;;0.80;0.50;;;9.90;99.90;;;;;;5014484;28;20516;-80
2024/04/02 01:22:35;;;;;;;0.70;0.60;;;9.20;99.90;;;;;;5018315;28;20395;-78
2024/04/02 01:25:01;;;;;;;0.60;0.50;;;;;;;;;;5008771;28;20933;-80
2024/04/02 01:27:27;;;;;;;1.40;0.60;;;9.20;99.90;;;;;;5021908;28;20397;-80
2024/04/02 01:29:55;;;;;;;0.50;0.30;;;9.80;99.90;;;;;;5023300;28;20457;-81
2024/04/02 01:32:21;;;;;;;1.10;0.40;;;9.40;99.90;;;;;;5025704;28;20396;-79
2024/04/02 01:34:46;;;;;;;0.80;0.40;;;9.90;99.90;;;;;;5023840;28;20475;-79
2024/04/02 01:37:12;;;;;;;1.50;0.50;;;9.70;99.90;;;;;;5024870;28;20468;-80
2024/04/02 01:39:37;;;;;;;1.30;0.50;;;9.20;99.90;;;;;;5014101;28;20387;-79
2024/04/02 01:42:03;;;;;;;1.20;0.70;;;9.60;99.90;;;;;;5024247;28;20413;-80
2024/04/02 01:44:28;;;;;;;0.87;0.40;;;9.50;99.90;;;;;;5008823;28;20817;-80
2024/04/02 01:46:54;;;;;;;0.80;0.50;;;9.80;99.90;;;;;;5014718;28;20430;-80
2024/04/02 01:49:19;;;;;;;0.70;0.40;;;8.80;99.90;;;;;;5031919;28;20423;-80
2024/04/02 01:51:45;;;;;;;3.20;0.57;;;9.80;99.90;;;;;;5023170;28;20439;-81
2024/04/02 01:54:11;;;;;;;0.50;0.40;;;10.00;99.90;;;;;;5022051;28;20474;-80
2024/04/02 01:56:36;;;;;;;1.03;0.57;;;9.30;99.90;;;;;;5022597;28;20451;-80
2024/04/02 01:59:02;;;;;;;0.50;0.40;;;9.60;99.90;;;;;;5010126;28;20409;-79
2024/04/02 02:01:28;;;;;;;0.57;0.40;;;;;;;;;;5013551;28;20468;-78
2024/04/02 02:03:53;;;;;;;0.50;0.40;;;9.90;99.90;;;;;;4998955;28;20460;-81
2024/04/02 02:06:19;;;;;;;1.00;0.43;;;9.20;99.90;;;;;;5006850;28;20403;-80
2024/04/02 02:08:44;;;;;;;1.10;0.40;;;9.40;99.90;;;;;;5009698;28;20405;-79
2024/04/02 02:11:10;;;;;;;0.70;0.30;;;9.20;99.90;;;;;;5021646;28;20391;-80
2024/04/02 02:13:38;;;;;;;0.50;0.38;;;9.80;99.90;;;;;;5024215;28;20387;-79
2024/04/02 02:16:04;;;;;;;0.93;0.50;;;9.10;99.90;;;;;;5013248;28;20397;-79
2024/04/02 02:18:30;;;;;;;0.75;0.40;;;9.40;99.90;;;;;;5023037;28;20475;-80
2024/04/02 02:20:57;;;;;;;0.98;0.30;;;;;;;;;;5022993;28;20399;-79
2024/04/02 02:23:23;;;;;;;1.35;0.40;;;;;;;;;;5012588;28;20391;-80
2024/04/02 02:25:49;;;;;;;0.60;0.40;;;9.30;99.90;;;;;;5013503;28;20416;-79
2024/04/02 02:28:14;;;;;;;0.60;0.40;;;9.60;99.90;;;;;;5018774;28;20406;-80
2024/04/02 02:30:40;;;;;;;0.70;0.30;;;10.00;99.90;;;;;;5011878;28;20462;-79
2024/04/02 02:33:05;;;;;;;0.50;0.30;;;9.40;99.90;;;;;;5022124;28;20395;-80
2024/04/02 02:35:31;;;;;;;0.50;0.30;;;9.70;99.90;;;;;;5011114;28;21079;-80
2024/04/02 02:37:57;;;;;;;0.60;0.50;;;9.20;99.90;;;;;;5013450;28;20387;-79
2024/04/02 02:40:23;;;;;;;1.27;0.70;;;9.60;99.90;;;;;;5015682;28;20416;-80
2024/04/02 02:42:48;;;;;;;1.90;1.00;;;9.30;99.90;;;;;;5015294;28;20414;-79
2024/04/02 02:45:14;;;;;;;1.38;0.47;;;9.20;99.90;;;;;;5031750;28;20434;-79
2024/04/02 02:47:39;;;;;;;0.60;0.50;;;9.50;99.90;;;;;;5012102;28;20495;-80
2024/04/02 02:50:05;;;;;;;0.80;0.30;;;;;;;;;;5014342;28;20420;-79
2024/04/02 02:52:31;;;;;;;0.70;0.30;;;9.00;99.90;;;;;;5012248;28;20929;-79
2024/04/02 02:54:56;;;;;;;1.07;0.40;;;9.40;99.90;;;;;;5021715;28;20391;-79
2024/04/02 02:57:22;;;;;;;0.80;0.40;;;;;;;;;;5028008;28;20399;-80
2024/04/02 02:59:48;;;;;;;0.50;0.50;;;9.60;99.90;;;;;;5008611;28;20400;-78
2024/04/02 03:02:14;;;;;;;0.50;0.30;;;9.10;99.90;;;;;;5010462;28;20442;-78
2024/04/02 03:04:39;;;;;;;1.50;0.30;;;9.40;99.90;;;;;;5028506;28;20392;-78
2024/04/02 03:07:05;;;;;;;1.50;0.40;;;9.00;99.90;;;;;;5025090;28;20387;-78
2024/04/02 03:09:32;;;;;;;0.50;0.40;;;8.60;99.90;;;;;;5035463;28;20399;-78
2024/04/02 03:11:58;;;;;;;0.80;0.50;;;8.90;99.90;;;;;;5022249;28;20400;-80
2024/04/02 03:14:23;;;;;;;0.50;0.30;;;9.80;99.90;;;;;;5027370;28;20388;-80
2024/04/02 03:16:49;;;;;;;1.10;0.60;;;8.80;99.90;;;;;;5020409;28;20394;-79
2024/04/02 03:19:14;;;;;;;1.23;0.40;;;9.50;99.90;;;;;;5037891;28;20391;-80
2024/04/02 03:21:40;;;;;;;0.50;0.30;;;9.20;99.90;;;;;;5018789;28;20400;-80
2024/04/02 03:24:05;;;;;;;0.70;0.40;;;9.40;99.90;;;;;;5028541;28;20492;-80
2024/04/02 03:26:31;;;;;;;1.20;0.30;;;9.30;99.90;;;;;;5014879;28;20401;-80
2024/04/02 03:28:57;;;;;;;1.10;0.50;;;9.40;99.90;;;;;;5015240;28;20415;-80
2024/04/02 03:31:22;;;;;;;0.60;0.30;;;9.50;99.90;;;;;;5015389;28;20883;-80
2024/04/02 03:33:48;;;;;;;0.50;0.30;;;9.10;99.90;;;;;;5024113;28;20421;-80
2024/04/02 03:36:13;;;;;;;1.30;0.30;;;8.30;99.90;;;;;;5027786;28;20399;-79
2024/04/02 03:38:39;;;;;;;2.10;0.40;;;9.00;99.90;;;;;;5033945;28;20391;-81
2024/04/02 03:41:09;;;;;;;0.50;0.40;;;9.60;99.90;;;;;;5016338;28;20469;-81
2024/04/02 03:43:35;;;;;;;0.50;0.40;;;9.00;99.90;;;;;;5022857;28;20763;-81
2024/04/02 03:46:05;;;;;;;0.50;0.40;;;9.50;99.90;;;;;;5037930;28;20740;-80
2024/04/02 03:48:31;;;;;;;0.70;0.30;;;9.70;99.90;;;;;;5039709;28;20399;-80
2024/04/02 03:50:56;;;;;;;0.70;0.40;;;9.20;99.90;;;;;;5037051;28;20396;-80
2024/04/02 03:53:22;;;;;;;0.40;0.30;;;9.00;99.90;;;;;;5014552;28;20474;-80
2024/04/02 03:55:47;;;;;;;0.50;0.40;;;9.50;99.90;;;;;;5013408;28;20404;-79
2024/04/02 03:58:13;;;;;;;0.60;0.40;;;9.60;99.90;;;;;;5022762;28;20396;-80
2024/04/02 04:00:42;;;;;;;1.10;0.40;;;9.40;99.90;;;;;;5014608;28;20880;-80
2024/04/02 04:03:09;;;;;;;1.00;0.30;;;8.80;99.90;;;;;;5037299;28;20391;-78
2024/04/02 04:05:34;;;;;;;2.70;0.40;;;9.50;99.90;;;;;;5026289;28;20389;-79
2024/04/02 04:08:00;;;;;;;1.20;0.50;;;8.60;99.90;;;;;;5027642;28;20428;-80
2024/04/02 04:10:25;;;;;;;1.40;0.40;;;8.80;99.90;;;;;;5014553;28;20399;-82
2024/04/02 04:12:51;;;;;;;3.00;0.40;;;9.30;99.90;;;;;;5024653;28;20400;-80
2024/04/02 04:15:17;;;;;;;0.90;0.40;;;8.50;99.90;;;;;;5024738;28;20806;-80
2024/04/02 04:17:42;;;;;;;0.80;0.40;;;9.00;99.90;;;;;;5013439;28;20393;-80
2024/04/02 04:20:08;;;;;;;0.60;0.40;;;8.70;99.90;;;;;;5015208;28;20388;-81
2024/04/02 04:22:34;;;;;;;0.70;0.30;;;9.00;99.90;;;;;;5013516;28;20935;-79
2024/04/02 04:25:01;;;;;;;0.50;0.32;;;;;;;;;;5028549;28;20399;-79
2024/04/02 04:27:32;;;;;;;1.00;0.40;;;8.90;99.90;;;;;;5016348;28;20397;-80
2024/04/02 04:29:59;;;;;;;1.80;0.40;;;8.70;99.90;;;;;;5015384;28;20429;-80
2024/04/02 04:32:25;;;;;;;0.60;0.40;;;8.10;99.90;;;;;;5017225;28;20392;-79
2024/04/02 04:34:50;;;;;;;0.80;0.45;;;8.30;99.90;;;;;;5018008;28;20468;-79
2024/04/02 04:37:16;;;;;;;0.60;0.40;;;;;;;;;;5025524;28;20834;-81
2024/04/02 04:39:41;;;;;;;3.10;0.68;;;7.70;99.90;;;;;;5028833;28;20454;-79
2024/04/02 04:42:07;;;;;;;1.40;0.50;;;8.20;99.90;;;;;;5008278;28;20883;-80
2024/04/02 04:44:32;;;;;;;2.10;0.70;;;8.40;99.90;;;;;;5028521;28;20390;-80
2024/04/02 04:46:59;;;;;;;1.60;0.70;;;;;;;;;;5022586;28;20397;-80
2024/04/02 04:49:24;;;;;;;3.00;0.90;;;8.50;99.90;;;;;;5012288;28;20415;-79
2024/04/02 04:51:50;;;;;;;1.37;0.60;;;8.50;99.90;;;;;;5021559;28;20486;-79
2024/04/02 04:54:16;;;;;;;3.60;0.73;;;8.80;99.90;;;;;;5031803;23;20432;-83
2024/04/02 04:56:41;;;;;;;2.20;0.80;;;9.60;99.90;;;;;;5020494;28;20768;-82
2024/04/02 04:59:07;;;;;;;1.60;0.70;;;8.80;99.90;;;;;;5036924;28;20391;-83
2024/04/02 05:01:32;;;;;;;1.42;0.65;;;8.80;99.90;;;;;;5043248;28;20398;-82
2024/04/02 05:03:57;;;;;;;2.33;0.60;;;9.20;99.90;;;;;;5035532;28;20399;-81
2024/04/02 05:06:23;;;;;;;2.10;0.60;;;9.20;99.90;;;;;;5012810;28;20400;-81
2024/04/02 05:08:48;;;;;;;1.25;0.63;;;8.40;99.90;;;;;;5016502;28;20427;-79
2024/04/02 05:11:14;;;;;;;3.40;0.90;;;8.50;99.90;;;;;;5021668;28;20410;-81
2024/04/02 05:13:40;;;;;;;4.00;1.10;;;9.20;99.90;;;;;;5032298;28;20451;-81
2024/04/02 05:16:06;;;;;;;3.28;0.82;;;8.60;99.90;;;;;;5033550;28;20401;-81
2024/04/02 05:18:33;;;;;;;1.40;0.60;;;8.50;99.90;;;;;;5025545;28;20404;-81
2024/04/02 05:20:59;;;;;;;2.70;0.98;;;9.10;99.90;;;;;;5025790;28;20389;-83
2024/04/02 05:23:26;;;;;;;4.00;1.05;;;10.30;99.90;;;;;;5020523;28;21847;-82
2024/04/02 05:26:00;;;;;;;2.88;0.80;;;9.30;99.90;;;;;;5023298;28;20473;-81
2024/04/02 05:28:25;;;;;;;2.90;1.00;;;8.80;99.90;;;;;;5023170;28;20425;-82
2024/04/02 05:30:52;;;;;;;4.70;1.05;;;8.80;99.90;;;;;;5024473;28;20472;-85
2024/04/02 05:33:18;;;;;;;5.10;1.10;;;8.60;99.90;;;;;;5025120;28;20388;-82
2024/04/02 05:35:45;;;;;;;4.47;1.13;;;8.90;99.90;;;;;;5006525;28;20406;-82
2024/04/02 05:38:11;;;;;;;2.88;1.20;;;8.60;99.90;;;;;;5007661;28;20405;-82
2024/04/02 05:40:38;;;;;;;3.47;1.00;;;8.70;99.90;;;;;;5023377;28;20411;-82
2024/04/02 05:43:04;;;;;;;4.35;1.30;;;8.50;99.90;;;;;;5024569;28;20893;-83
2024/04/02 05:45:29;;;;;;;4.80;1.40;;;9.20;99.90;;;;;;5024963;28;20407;-83
2024/04/02 05:47:55;;;;;;;6.15;1.38;;;9.40;99.90;;;;;;5022994;28;20777;-83
2024/04/02 05:50:21;;;;;;;4.88;1.02;;;8.80;99.90;;;;;;5024324;28;20388;-83
2024/04/02 05:52:47;;;;;;;5.47;1.00;;;9.30;99.90;;;;;;5023165;28;20847;-83
2024/04/02 05:55:12;;;;;;;2.70;1.10;;;9.10;99.90;;;;;;5023528;28;20472;-82
2024/04/02 05:57:39;;;;;;;4.72;1.13;;;8.90;99.90;;;;;;5020836;28;20820;-83
2024/04/02 06:00:10;;;;;;;3.53;1.23;;;8.90;99.90;;;;;;5002268;28;20402;-82
2024/04/02 06:02:36;;;;;;;3.45;1.10;;;9.20;99.90;;;;;;5004013;28;20387;-81
2024/04/02 06:05:02;;;;;;;3.00;1.30;;;9.30;99.90;;;;;;5006680;28;20386;-82
2024/04/02 06:07:28;;;;;;;3.88;1.40;;;9.30;99.90;;;;;;5007913;28;20430;-83
2024/04/02 06:09:53;;;;;;;7.20;1.70;;;9.70;99.90;;;;;;5020963;28;20383;-83
2024/04/02 06:12:19;;;;;;;5.93;1.77;;;9.80;99.90;;;;;;5007217;28;20390;-83
2024/04/02 06:14:44;;;;;;;2.70;1.40;;;9.30;99.90;;;;;;5005859;28;20383;-84
2024/04/02 06:17:10;;;;;;;3.85;1.60;;;9.90;99.90;;;;;;5006719;28;20386;-83
2024/04/02 06:19:35;;;;;;;4.33;1.10;;;9.30;99.90;;;;;;5005595;28;20402;-83
2024/04/02 06:22:01;;;;;;;6.40;1.50;;;9.10;99.90;;;;;;5004289;28;20422;-83
2024/04/02 06:24:27;;;;;;;4.77;1.80;;;9.80;99.90;;;;;;5008458;28;20434;-83
2024/04/02 06:26:52;;;;;;;4.25;1.40;;;9.70;99.90;;;;;;5004178;28;20403;-83
2024/04/02 06:29:19;;;;;;;3.33;1.60;;;9.60;99.90;;;;;;5003960;28;20417;-83
2024/04/02 06:31:45;;;;;;;3.13;1.30;;;9.10;99.90;;;;;;5003775;28;20400;-80
2024/04/02 06:34:11;;;;;;;5.05;1.70;;;9.60;99.90;;;;;;5013704;28;20397;-82
2024/04/02 06:36:36;;;;;;;4.28;1.48;;;9.60;99.90;;;;;;5025106;28;20423;-83
2024/04/02 06:39:02;;;;;;;3.45;1.40;;;9.30;99.90;;;;;;5023198;28;20401;-83
2024/04/02 06:41:28;;;;;;;6.38;1.42;;;9.30;99.90;;;;;;5023373;28;20542;-83
2024/04/02 06:43:54;;;;;;;6.07;1.20;;;9.70;99.90;;;;;;5025135;28;20900;-82
2024/04/02 06:46:19;;;;;;;5.23;1.20;;;9.80;99.90;;;;;;5026728;28;20385;-83
2024/04/02 06:48:45;;;;;;;5.20;1.40;;;10.40;99.90;;;;;;5024979;28;20454;-83
2024/04/02 06:51:13;;;;;;;2.20;0.90;;;10.30;99.90;;;;;;5024191;28;20385;-82
2024/04/02 06:53:39;;;;;;;4.75;1.20;;;9.90;99.90;;;;;;5010222;28;20441;-82
2024/04/02 06:56:06;;;;;;;4.20;1.00;;;10.00;99.90;;;;;;5010097;28;20375;-82
2024/04/02 06:58:32;;;;;;;5.18;1.30;;;;;;;;;;5011988;28;20403;-82
2024/04/02 07:00:58;;;;;;;4.65;1.30;;;9.50;99.90;;;;;;5007418;28;20402;-83
2024/04/02 07:03:24;;;;;;;3.53;1.10;;;10.30;99.90;;;;;;5010144;28;20483;-83
2024/04/02 07:05:51;;;;;;;4.70;1.40;;;10.10;99.90;;;;;;5015372;28;20389;-83
2024/04/02 07:08:17;;;;;;;3.08;1.92;;;9.90;99.90;;;;;;5017805;28;20809;-83
2024/04/02 07:10:44;;;;;;;4.78;1.42;;;10.20;99.90;;;;;;5027665;28;20413;-84
2024/04/02 07:13:14;;;;;;;6.32;1.70;;;9.50;99.90;;;;;;5026690;28;20388;-84
2024/04/02 07:15:41;;;;;;;5.22;1.50;;;9.70;99.90;;;;;;5025521;28;20385;-83
2024/04/02 07:18:07;;;;;;;2.67;1.20;;;9.40;99.90;;;;;;5026401;28;20399;-82
2024/04/02 07:20:34;;;;;;;4.68;1.35;;;;;;;;;;5024693;28;20427;-83
2024/04/02 07:23:01;;;;;;;2.50;0.90;;;10.30;99.90;;;;;;5004313;28;20848;-84
2024/04/02 07:25:27;;;;;;;6.32;1.20;;;10.00;99.90;;;;;;5004665;28;20445;-84
2024/04/02 07:27:53;;;;;;;4.40;1.38;;;10.10;99.90;;;;;;5004124;28;20505;-84
2024/04/02 07:30:18;;;;;;;5.55;1.60;;;9.90;99.90;;;;;;5004313;28;20441;-84
2024/04/02 07:32:46;;;;;;;6.40;2.27;;;10.30;99.90;;;;;;5003207;28;20477;-84
2024/04/02 07:35:11;;;;;;;7.70;2.60;;;9.90;99.90;;;;;;5012261;28;20389;-84
2024/04/02 07:37:37;;;;;;;5.13;1.70;;;;;;;;;;5021793;28;20392;-84
2024/04/02 07:40:03;;;;;;;5.22;1.80;;;9.80;99.90;;;;;;5022512;28;20392;-84
2024/04/02 07:42:29;;;;;;;7.78;2.00;;;10.10;99.90;;;;;;5023286;28;20443;-83
2024/04/02 07:44:54;;;;;;;2.28;1.60;;;10.70;99.90;;;;;;5033144;28;20416;-83
2024/04/02 07:47:20;;;;;;;4.03;1.73;;;10.50;99.90;;;;;;5033191;28;20891;-84
2024/04/02 07:49:46;;;;;;;4.10;1.00;;;;;;;;;;5027571;28;20527;-85
2024/04/02 07:52:11;;;;;;;3.50;1.30;;;10.80;99.90;;;;;;5008617;28;20402;-84
2024/04/02 07:54:37;;;;;;;3.00;1.13;;;10.80;99.90;;;;;;5025421;28;20459;-84
2024/04/02 07:57:03;;;;;;;2.90;0.80;;;;;;;;;;5026423;28;20473;-84
2024/04/02 07:59:28;;;;;;;5.32;1.20;;;10.60;99.90;;;;;;5024577;28;20469;-84
2024/04/02 08:01:54;;;;;;;4.17;1.10;;;10.90;99.90;;;;;;5007935;28;20402;-83
2024/04/02 08:04:20;;;;;;;5.30;1.40;;;10.60;99.90;;;;;;5004212;28;20410;-83
2024/04/02 08:06:46;;;;;;;6.00;1.48;;;10.00;99.90;;;;;;5005006;28;20806;-83
2024/04/02 08:09:11;;;;;;;4.22;1.40;;;9.80;99.90;;;;;;5023341;28;20419;-83
2024/04/02 08:11:43;;;;;;;3.50;1.40;;;10.00;99.90;;;;;;5024197;28;21204;-83
2024/04/02 08:14:10;;;;;;;6.10;1.58;;;10.50;99.90;;;;;;5023919;28;20385;-84
2024/04/02 08:16:35;;;;;;;4.70;2.00;;;9.90;99.90;;;;;;5022293;28;20396;-82
2024/04/02 08:19:01;;;;;;;3.78;1.02;;;10.20;99.90;;;;;;5019354;28;20499;-82
2024/04/02 08:21:26;;;;;;;5.47;1.10;;;10.40;99.90;;;;;;5003070;28;20399;-83
2024/04/02 08:23:52;;;;;;;6.33;1.30;;;10.40;99.90;;;;;;5006932;28;20397;-84
2024/04/02 08:26:19;;;;;;;5.60;1.40;;;;;;;;;;5023615;28;20408;-83
2024/04/02 08:28:45;;;;;;;3.70;1.07;;;10.60;99.90;;;;;;5022122;28;20447;-84
2024/04/02 08:31:11;;;;;;;3.63;1.13;;;;;;;;;;5021691;28;20396;-84
2024/04/02 08:33:37;;;;;;;1.10;0.80;;;9.80;99.90;;;;;;5018341;28;20395;-83
2024/04/02 08:36:03;;;;;;;3.92;1.23;;;9.80;99.90;;;;;;5023886;28;20392;-82
2024/04/02 08:38:29;;;;;;;3.10;1.30;;;;;;;;;;5022130;28;20439;-84
2024/04/02 08:41:01;;;;;;;4.43;1.17;;;10.20;99.90;;;;;;5022591;28;20397;-82
2024/04/02 08:43:28;;;;;;;3.28;1.10;;;;;;;;;;5023759;28;20393;-82
2024/04/02 08:45:55;;;;;;;3.08;1.00;;;9.80;99.90;;;;;;5015329;28;20429;-82
2024/04/02 08:48:20;;;;;;;1.77;0.80;;;10.30;99.90;;;;;;5008717;28;20421;-82
2024/04/02 08:50:47;;;;;;;1.73;1.00;;;10.50;99.90;;;;;;5017971;28;20422;-81
2024/04/02 08:53:12;;;;;;;2.63;1.20;;;10.60;99.90;;;;;;5017799;28;20413;-84
2024/04/02 08:55:40;;;;;;;3.07;1.00;;;10.10;99.90;;;;;;5018185;28;20430;-83
2024/04/02 08:58:07;;;;;;;2.33;0.80;;;10.40;99.90;;;;;;5017420;28;20402;-83
2024/04/02 09:00:33;;;;;;;2.80;0.90;;;10.40;99.90;;;;;;5025184;28;20419;-83
2024/04/02 09:02:59;;;;;;;1.58;0.77;;;9.70;99.90;;;;;;5026021;28;20397;-85
2024/04/02 09:05:24;;;;;;;3.10;1.00;;;9.60;99.90;;;;;;5018943;28;20471;-83
2024/04/02 09:07:50;;;;;;;3.22;0.73;;;;;;;;;;5020294;28;20416;-83
2024/04/02 09:10:16;;;;;;;2.72;0.73;;;;;;;;;;5020885;28;20431;-83
2024/04/02 09:12:42;;;;;;;1.58;0.70;;;10.00;99.90;;;;;;5020642;28;20423;-84
2024/04/02 09:15:07;;;;;;;2.50;0.80;;;10.00;99.90;;;;;;5019316;28;20400;-84
2024/04/02 09:17:34;;;;;;;1.80;0.50;;;;;;;;;;5007990;28;20439;-84
2024/04/02 09:20:00;;;;;;;1.60;0.50;;;10.40;99.90;;;;;;5009030;28;20401;-84
2024/04/02 09:22:26;;;;;;;4.07;0.80;;;10.40;99.90;;;;;;5007145;28;20400;-84
2024/04/02 09:24:51;;;;;;;2.77;0.70;;;10.30;99.90;;;;;;5012647;28;20408;-84
2024/04/02 09:27:19;;;;;;;4.28;1.00;;;;;;;;;;5014782;28;20393;-84
2024/04/02 09:29:45;;;;;;;0.82;0.57;;;10.70;99.90;;;;;;4998618;28;20818;-83
2024/04/02 09:32:10;;;;;;;1.90;0.60;;;10.80;99.90;;;;;;4996579;28;20502;-83
2024/04/02 09:34:37;;;;;;;1.80;0.70;;;;;;;;;;4994681;28;20466;-83
2024/04/02 09:37:16;;;;;;;1.42;0.73;;;10.80;99.90;;;;;;4995191;28;20441;-83
2024/04/02 09:39:42;;;;;;;1.63;0.52;;;11.20;99.90;;;;;;5002750;28;20925;-84
2024/04/02 09:42:14;;;;;;;1.02;0.80;;;11.20;99.90;;;;;;5000199;28;20909;-84
2024/04/02 09:44:43;;;;;;;2.70;0.60;;;11.30;99.90;;;;;;5014658;28;20397;-84
2024/04/02 09:47:10;;;;;;;1.83;0.70;;;11.00;99.90;;;;;;5010007;28;20490;-84
2024/04/02 09:49:36;;;;;;;2.42;0.80;;;;;;;;;;5004433;28;20489;-84
2024/04/02 09:52:03;;;;;;;2.00;0.73;;;11.20;99.90;;;;;;5003722;28;20425;-84
2024/04/02 09:54:34;;;;;;;2.77;0.70;;;11.40;99.90;;;;;;5003516;28;20418;-84
2024/04/02 09:57:03;;;;;;;1.90;1.10;;;10.80;99.90;;;;;;5001828;28;20409;-84
2024/04/02 09:59:29;;;;;;;3.22;0.90;;;10.60;99.90;;;;;;5002035;28;20481;-84
2024/04/02 10:01:56;;;;;;;1.35;0.50;;;10.60;99.90;;;;;;5014521;28;20396;-84
2024/04/02 10:04:22;;;;;;;2.33;0.70;;;;;;;;;;5015724;28;20408;-83
2024/04/02 10:06:50;;;;;;;1.70;0.50;;;10.60;99.90;;;;;;5014297;28;20393;-84
2024/04/02 10:09:16;;;;;;;1.52;0.68;;;11.20;99.90;;;;;;5014758;28;20417;-84
2024/04/02 10:11:44;;;;;;;2.20;0.73;;;10.70;99.90;;;;;;5021124;28;20446;-84
2024/04/02 10:14:14;;;;;;;1.10;0.50;;;10.70;99.90;;;;;;5018094;28;20394;-84
2024/04/02 10:16:41;;;;;;;1.53;0.67;;;11.30;99.90;;;;;;5016591;28;20492;-84
2024/04/02 10:19:19;;;;;;;2.30;0.70;;;10.80;99.90;;;;;;5013704;28;20776;-84
2024/04/02 10:21:46;;;;;;;1.70;0.60;;;11.60;99.90;;;;;;5010194;28;20409;-83
2024/04/02 10:24:12;;;;;;;1.73;0.70;;;;;;;;;;5007321;28;20434;-82
2024/04/02 10:26:39;;;;;;;1.25;0.50;;;11.50;99.90;;;;;;5015207;28;20401;-82
2024/04/02 10:29:04;;;;;;;2.70;0.70;;;10.70;99.90;;;;;;5003761;28;20472;-82
2024/04/02 10:31:40;;;;;;;1.97;0.63;;;11.60;99.90;;;;;;5002284;28;20954;-82
2024/04/02 10:34:10;;;;;;;2.97;0.80;;;11.60;99.90;;;;;;5004959;28;20498;-82
2024/04/02 10:36:38;;;;;;;2.45;0.70;;;11.80;99.90;;;;;;4984602;28;20461;-82
2024/04/02 10:39:09;;;;;;;2.20;0.90;;;11.90;99.90;;;;;;4998398;28;20422;-82
2024/04/02 10:41:36;;;;;;;2.10;0.80;;;;;;;;;;5034203;28;20396;-83
2024/04/02 10:44:03;;;;;;;1.23;0.80;;;;;;;;;;5026194;28;20398;-84
2024/04/02 10:46:29;;;;;;;1.00;0.60;;;;;;;;;;5010851;28;20398;-84
2024/04/02 10:48:59;;;;;;;1.30;0.70;;;;;;;;;;5009586;28;20411;-83
2024/04/02 10:51:26;;;;;;;1.03;0.70;;;11.90;99.90;;;;;;5008253;28;20406;-84
2024/04/02 10:53:52;;;;;;;2.10;0.90;;;;;;;;;;5010064;28;20402;-83
2024/04/02 10:56:19;;;;;;;1.90;0.77;;;11.80;99.90;;;;;;5014999;28;20396;-83
2024/04/02 10:58:45;;;;;;;2.40;0.68;;;11.30;99.90;;;;;;5031455;28;20407;-84
2024/04/02 11:01:12;;;;;;;3.30;0.70;;;11.70;99.90;;;;;;5017361;28;20462;-84
2024/04/02 11:03:38;;;;;;;1.40;0.98;;;12.10;99.90;;;;;;5005386;28;20409;-84
2024/04/02 11:06:04;;;;;;;2.87;0.80;;;12.00;99.90;;;;;;5006954;28;20406;-84
2024/04/02 11:08:30;;;;;;;1.02;0.57;;;;;;;;;;5026470;28;20440;-84
2024/04/02 11:10:56;;;;;;;0.90;0.70;;;12.10;99.90;;;;;;5004986;28;20409;-83
2024/04/02 11:13:26;;;;;;;1.30;0.67;;;11.80;99.90;;;;;;5006107;28;20454;-82
2024/04/02 11:15:52;;;;;;;2.90;0.70;;;11.90;99.90;;;;;;5008564;28;20903;-83
2024/04/02 11:18:24;;;;;;;1.80;0.60;;;12.40;99.90;;;;;;5004668;28;20457;-83
2024/04/02 11:20:57;;;;;;;2.10;0.80;;;12.50;99.90;;;;;;5006088;28;20430;-83
2024/04/02 11:26:17;;;;;;;2.45;0.52;;;13.20;99.90;;;;;;5004453;28;20417;-82
2024/04/02 11:28:43;;;;;;;2.38;0.60;;;12.30;99.90;;;;;;5003818;28;20867;-83
2024/04/02 11:31:11;;;;;;;1.00;0.60;;;13.10;99.90;;;;;;5006994;28;20390;-83
2024/04/02 11:33:37;;;;;;;1.90;0.60;;;12.40;99.90;;;;;;5015754;28;20384;-81
2024/04/02 11:36:04;;;;;;;1.20;0.70;;;12.90;99.90;;;;;;5005063;28;20422;-81
2024/04/02 11:38:29;;;;;;;2.35;0.52;;;12.90;99.90;;;;;;5003650;28;20383;-81
2024/04/02 11:40:56;;;;;;;1.70;0.47;;;12.70;99.90;;;;;;5003164;28;20398;-82
2024/04/02 11:43:22;;;;;;;1.33;0.70;;;12.00;99.90;;;;;;5000906;28;20740;-82
2024/04/02 11:45:48;;;;;;;2.00;0.60;;;;;;;;;;4996913;28;20512;-83
2024/04/02 11:48:14;;;;;;;2.30;0.70;;;11.90;99.90;;;;;;4999977;28;20414;-82
2024/04/02 11:50:40;;;;;;;1.95;0.65;;;11.20;99.90;;;;;;5003887;28;20410;-83
2024/04/02 11:53:06;;;;;;;3.70;0.60;;;;;;;;;;5003763;28;20397;-82
2024/04/02 11:55:31;;;;;;;0.90;0.50;;;10.60;99.90;;;;;;4957166;28;1753522;-81
2024/04/02 12:00:41;;;;;;;2.13;0.65;;;;;;;;;;5013665;28;20430;-82
2024/04/02 12:03:07;;;;;;;1.30;0.60;;;11.90;99.90;;;;;;5000224;28;20394;-82
2024/04/02 12:05:33;;;;;;;1.60;0.60;;;13.30;99.90;;;;;;5015616;28;21015;-83
2024/04/02 12:07:58;;;;;;;2.90;0.70;;;;;;;;;;5021368;28;20401;-82
2024/04/02 12:10:25;;;;;;;0.80;0.50;;;;;;;;;;5019914;28;20403;-82
2024/04/02 12:12:52;;;;;;;1.70;0.70;;;13.30;99.90;;;;;;5018249;28;20486;-83
2024/04/02 12:15:17;;;;;;;1.60;0.60;;;12.20;99.90;;;;;;5009099;28;20406;-83
2024/04/02 12:17:43;;;;;;;2.90;0.60;;;13.20;99.90;;;;;;5004010;28;20406;-82
2024/04/02 12:20:11;;;;;;;1.63;0.90;;;11.60;99.90;;;;;;5005551;28;20466;-84
2024/04/02 12:22:37;;;;;;;2.50;0.80;;;12.30;99.90;;;;;;5005746;28;20418;-84
2024/04/02 12:25:03;;;;;;;2.00;0.77;;;;;;;;;;5003555;28;20399;-84
2024/04/02 12:27:30;;;;;;;1.60;0.70;;;13.10;99.90;;;;;;5039478;22;20914;-80
2024/04/02 12:29:57;;;;;;;4.03;0.75;;;12.00;99.90;;;;;;5045905;28;20412;-79
2024/04/02 12:32:28;;;;;;;1.77;0.70;;;12.90;99.90;;;;;;5055775;28;20409;-79
2024/04/02 12:34:54;;;;;;;1.00;0.70;;;12.90;99.90;;;;;;5047601;28;20484;-79
2024/04/02 12:37:19;;;;;;;2.60;0.73;;;12.40;99.90;;;;;;5036255;28;20809;-80
2024/04/02 12:39:46;;;;;;;1.52;0.65;;;13.10;99.90;;;;;;5038848;28;20469;-79
2024/04/02 12:42:13;;;;;;;3.80;0.70;;;14.90;99.90;;;;;;5034268;28;20387;-79
2024/04/02 12:44:40;;;;;;;1.88;0.60;;;14.60;99.90;;;;;;5025568;28;20393;-81
2024/04/02 12:47:06;;;;;;;0.70;0.50;;;15.30;99.90;;;;;;5053285;28;20393;-80
2024/04/02 12:49:32;;;;;;;1.80;0.68;;;15.10;99.90;;;;;;5037236;28;20929;-80
2024/04/02 12:51:57;;;;;;;1.27;0.60;;;14.60;99.90;;;;;;5036872;28;20485;-80
2024/04/02 12:54:23;;;;;;;0.75;0.50;;;15.10;99.90;;;;;;5036400;28;20473;-78
2024/04/02 12:56:49;;;;;;;0.90;0.80;;;;;;;;;;5035744;28;20393;-79
2024/04/02 12:59:14;;;;;;;2.40;0.70;;;14.80;99.90;;;;;;5036480;28;20401;-78
2024/04/02 13:01:40;;;;;;;0.60;0.43;;;14.30;99.90;;;;;;5046351;28;20388;-80
2024/04/02 13:04:06;;;;;;;1.70;0.60;;;14.00;99.90;;;;;;5041527;28;20393;-79
2024/04/02 13:06:34;;;;;;;4.60;0.70;;;14.00;99.90;;;;;;5035895;28;20841;-79